Time;durP1;ratioP1;P1;durP2;ratioP2;P2;SDS_P1;SDS_P2;PMS_P1;PMS_P2;Temp;Humidity;BMP_temperature;BMP_pressure;BME280_temperature;BME280_humidity;BME280_pressure;Samples;Min_cycle;Max_cycle;Signal;HPM_P1;HPM_P2
2022/09/08 00:00:57;;;;;;;15.13;9.55;;;17.00;99.90;;;;;;4930568;28;210424;-73
2022/09/08 00:03:26;;;;;;;12.40;8.32;;;17.00;99.90;;;;;;4980810;28;20046;-73
2022/09/08 00:06:08;;;;;;;16.23;10.43;;;17.00;99.90;;;;;;4935473;28;209645;-73
2022/09/08 00:08:34;;;;;;;13.65;9.65;;;16.90;99.90;;;;;;4967845;28;20062;-73
2022/09/08 00:11:05;;;;;;;16.65;11.02;;;17.00;99.90;;;;;;4938135;28;48827;-73
2022/09/08 00:13:33;;;;;;;15.80;11.77;;;16.90;99.90;;;;;;4969717;28;20054;-73
2022/09/08 00:16:03;;;;;;;14.10;10.82;;;16.90;99.90;;;;;;4930248;28;211058;-73
2022/09/08 00:18:29;;;;;;;17.38;12.57;;;16.90;99.90;;;;;;4971638;28;20057;-73
2022/09/08 00:20:55;;;;;;;15.30;12.10;;;16.90;99.90;;;;;;4937633;28;208776;-73
2022/09/08 00:23:21;;;;;;;18.60;13.65;;;16.80;99.90;;;;;;4985023;28;20508;-73
2022/09/08 00:25:47;;;;;;;17.38;13.02;;;16.80;99.90;;;;;;4925156;28;215324;-73
2022/09/08 00:28:14;;;;;;;18.52;13.88;;;16.80;99.90;;;;;;4968731;28;20810;-73
2022/09/08 00:30:40;;;;;;;18.48;15.73;;;16.80;99.90;;;;;;4939686;28;211444;-73
2022/09/08 00:33:06;;;;;;;16.27;14.15;;;16.80;99.90;;;;;;4986271;28;20055;-74
2022/09/08 00:35:32;;;;;;;17.75;14.60;;;16.80;99.90;;;;;;4946683;28;209950;-73
2022/09/08 00:37:58;;;;;;;16.92;13.90;;;16.80;99.90;;;;;;4989160;28;20059;-73
2022/09/08 00:40:26;;;;;;;18.20;15.90;;;16.80;99.90;;;;;;4934905;28;207001;-73
2022/09/08 00:43:04;;;;;;;17.08;14.10;;;16.80;99.90;;;;;;4979959;28;20055;-73
2022/09/08 00:45:40;;;;;;;16.80;14.70;;;16.80;99.90;;;;;;4926054;28;209845;-73
2022/09/08 00:48:15;;;;;;;18.98;15.57;;;16.70;99.90;;;;;;4971586;28;20061;-73
2022/09/08 00:50:44;;;;;;;18.75;16.25;;;16.70;99.90;;;;;;4934043;28;205725;-74
2022/09/08 00:53:14;;;;;;;22.42;16.60;;;16.70;99.90;;;;;;4977618;28;20062;-73
2022/09/08 00:55:41;;;;;;;19.50;15.32;;;16.70;99.90;;;;;;4956741;28;174117;-73
2022/09/08 00:58:07;;;;;;;21.73;17.48;;;16.70;99.90;;;;;;4966687;28;20063;-73
2022/09/08 01:00:38;;;;;;;20.05;15.82;;;16.70;99.90;;;;;;4940685;28;208892;-73
2022/09/08 01:03:08;;;;;;;21.00;18.40;;;16.70;99.90;;;;;;4977575;28;21799;-73
2022/09/08 01:05:42;;;;;;;23.42;20.88;;;16.70;99.90;;;;;;4934184;28;212828;-74
2022/09/08 01:14:16;;;;;;;20.27;16.83;;;16.80;99.90;;;;;;4974260;28;20061;-73
2022/09/08 01:16:48;;;;;;;21.48;18.38;;;16.90;99.90;;;;;;4929919;28;205758;-73
2022/09/08 01:19:25;;;;;;;21.83;18.05;;;16.90;99.90;;;;;;4982073;28;20067;-73
2022/09/08 01:22:26;;;;;;;24.55;20.65;;;16.90;99.90;;;;;;4941847;28;209164;-72
2022/09/08 01:25:04;;;;;;;;;;;16.90;99.90;;;;;;4922744;28;20103;-72
2022/09/08 01:27:31;;;;;;;20.90;18.63;;;16.90;99.90;;;;;;4867422;28;206533;-73
2022/09/08 01:30:06;;;;;;;19.17;16.90;;;16.90;99.90;;;;;;4914688;28;208484;-71
2022/09/08 01:32:35;;;;;;;22.23;19.85;;;16.90;99.90;;;;;;4909023;28;206536;-73
2022/09/08 01:35:03;;;;;;;22.43;18.90;;;16.90;99.90;;;;;;4893214;28;209010;-72
2022/09/08 01:37:29;;;;;;;20.75;18.55;;;16.90;99.90;;;;;;4924814;28;20067;-73
2022/09/08 01:39:56;;;;;;;23.52;20.48;;;16.90;99.90;;;;;;4934318;28;140007;-72
2022/09/08 01:42:22;;;;;;;24.65;20.85;;;16.90;99.90;;;;;;4879723;28;207493;-73
2022/09/08 01:44:48;;;;;;;25.13;21.15;;;17.00;99.90;;;;;;4926525;28;20051;-72
2022/09/08 01:47:14;;;;;;;26.55;22.35;;;17.00;99.90;;;;;;4885671;28;181164;-72
2022/09/08 01:49:41;;;;;;;23.73;21.23;;;17.00;99.90;;;;;;4923623;28;20059;-73
2022/09/08 01:52:07;;;;;;;26.75;22.13;;;17.00;99.90;;;;;;4895337;29;77241;-72
2022/09/08 01:54:34;;;;;;;28.52;22.92;;;17.00;99.90;;;;;;4927527;28;20524;-72
2022/09/08 01:57:00;;;;;;;26.00;21.52;;;17.00;99.90;;;;;;4897224;28;206234;-72
2022/09/08 01:59:27;;;;;;;24.77;22.10;;;17.00;99.90;;;;;;4926414;28;20732;-72
2022/09/08 02:01:53;;;;;;;27.17;21.48;;;17.00;99.90;;;;;;4886227;28;205304;-71
2022/09/08 02:04:20;;;;;;;26.38;22.30;;;17.10;99.90;;;;;;4958690;28;20428;-72
2022/09/08 02:06:46;;;;;;;32.47;25.02;;;17.10;99.90;;;;;;4912661;28;207549;-72
2022/09/08 02:09:13;;;;;;;26.70;23.80;;;17.10;99.90;;;;;;4961155;28;20055;-72
2022/09/08 02:11:39;;;;;;;26.77;24.08;;;17.10;99.90;;;;;;4932021;28;210117;-71
2022/09/08 02:14:05;;;;;;;28.50;24.92;;;17.10;99.90;;;;;;4958154;28;20059;-71
2022/09/08 02:16:31;;;;;;;26.60;23.17;;;17.10;99.90;;;;;;4915122;28;204923;-72
2022/09/08 02:18:57;;;;;;;24.63;22.02;;;17.10;99.90;;;;;;4965708;28;20043;-72
2022/09/08 02:21:24;;;;;;;29.67;26.42;;;17.10;99.90;;;;;;4924239;28;209312;-72
2022/09/08 02:23:51;;;;;;;26.90;23.90;;;17.10;99.90;;;;;;4957865;28;20054;-72
2022/09/08 02:26:25;;;;;;;27.25;24.35;;;17.10;99.90;;;;;;4921194;28;205999;-73
2022/09/08 02:28:53;;;;;;;29.27;26.13;;;17.20;99.90;;;;;;4961141;28;20054;-72
2022/09/08 02:31:21;;;;;;;25.38;22.73;;;17.20;99.90;;;;;;4911495;28;211866;-72
2022/09/08 02:33:48;;;;;;;24.13;21.58;;;17.20;99.90;;;;;;4952010;28;20069;-72
2022/09/08 02:36:14;;;;;;;28.92;25.83;;;17.20;99.90;;;;;;4916377;28;187105;-72
2022/09/08 02:38:41;;;;;;;29.92;26.83;;;17.20;99.90;;;;;;4960905;28;20062;-72
2022/09/08 02:41:07;;;;;;;29.33;26.33;;;17.20;99.90;;;;;;4913342;28;94225;-73
2022/09/08 02:43:34;;;;;;;28.65;25.65;;;17.20;99.90;;;;;;4963221;28;20057;-72
2022/09/08 02:46:06;;;;;;;27.67;24.83;;;17.20;99.90;;;;;;4926001;28;213933;-72
2022/09/08 02:48:32;;;;;;;30.75;27.58;;;17.20;99.90;;;;;;4960437;28;20805;-73
2022/09/08 02:50:59;;;;;;;28.13;25.15;;;17.20;99.90;;;;;;4912987;28;215192;-73
2022/09/08 02:53:27;;;;;;;28.73;25.77;;;17.30;99.90;;;;;;4965014;28;20062;-72
2022/09/08 02:55:54;;;;;;;32.97;29.48;;;17.30;99.90;;;;;;4923970;28;206993;-72
2022/09/08 02:58:20;;;;;;;28.92;25.83;;;17.30;99.90;;;;;;4960337;28;20055;-73
2022/09/08 03:00:46;;;;;;;30.08;25.60;;;17.30;99.90;;;;;;4919800;28;157858;-73
2022/09/08 03:03:12;;;;;;;30.88;27.67;;;17.30;99.90;;;;;;4957506;28;20543;-72
2022/09/08 03:05:38;;;;;;;30.85;27.55;;;17.30;99.90;;;;;;4924424;28;209358;-72
2022/09/08 03:08:05;;;;;;;30.17;26.95;;;17.30;99.90;;;;;;4968212;28;20038;-73
2022/09/08 03:10:33;;;;;;;34.60;30.92;;;17.30;99.90;;;;;;4921288;28;213636;-72
2022/09/08 03:12:59;;;;;;;33.88;30.27;;;17.30;99.90;;;;;;4953279;28;20501;-73
2022/09/08 03:15:27;;;;;;;34.13;30.73;;;17.40;99.90;;;;;;4913892;28;211527;-72
2022/09/08 03:17:54;;;;;;;31.02;27.75;;;17.40;99.90;;;;;;4973452;28;20038;-72
2022/09/08 03:20:22;;;;;;;34.28;30.63;;;17.40;99.90;;;;;;4913509;28;209313;-73
2022/09/08 03:22:49;;;;;;;29.58;26.45;;;17.40;99.90;;;;;;4958895;28;20279;-73
2022/09/08 03:25:15;;;;;;;32.58;28.90;;;17.50;99.90;;;;;;4914646;28;211099;-73
2022/09/08 03:27:42;;;;;;;26.67;23.88;;;17.50;99.90;;;;;;4962558;28;20066;-73
2022/09/08 03:30:11;;;;;;;30.17;27.00;;;17.50;99.90;;;;;;4922771;28;209308;-73
2022/09/08 03:32:39;;;;;;;33.08;29.65;;;17.50;99.90;;;;;;4958605;28;20050;-72
2022/09/08 03:35:07;;;;;;;34.37;30.80;;;17.60;99.90;;;;;;4919170;28;209091;-73
2022/09/08 03:37:40;;;;;;;31.83;28.52;;;17.50;99.90;;;;;;4957223;28;20051;-73
2022/09/08 03:40:12;;;;;;;29.88;26.75;;;17.50;99.90;;;;;;4912365;28;213600;-73
2022/09/08 03:42:40;;;;;;;34.28;30.48;;;17.60;99.90;;;;;;4961681;28;20058;-72
2022/09/08 03:45:10;;;;;;;31.90;28.70;;;17.60;99.90;;;;;;4914482;28;209358;-74
2022/09/08 03:47:37;;;;;;;27.10;24.20;;;17.60;99.90;;;;;;4958033;28;20047;-74
2022/09/08 03:50:04;;;;;;;32.40;28.97;;;17.60;99.90;;;;;;4914662;28;211317;-73
2022/09/08 03:52:30;;;;;;;31.95;28.52;;;17.60;99.90;;;;;;4944720;28;20539;-73
2022/09/08 03:54:57;;;;;;;32.75;29.35;;;17.60;99.90;;;;;;4939521;28;208942;-73
2022/09/08 03:57:25;;;;;;;34.90;31.20;;;17.60;99.90;;;;;;4918940;28;104803;-73
2022/09/08 03:59:53;;;;;;;34.38;30.65;;;17.60;99.90;;;;;;4956805;28;20067;-73
2022/09/08 04:02:21;;;;;;;32.03;28.73;;;17.60;99.90;;;;;;4897796;28;209253;-74
2022/09/08 04:04:53;;;;;;;34.28;30.70;;;17.60;99.90;;;;;;4958898;28;20119;-74
2022/09/08 04:07:21;;;;;;;32.05;28.65;;;17.60;99.90;;;;;;4919899;28;206732;-73
2022/09/08 04:09:48;;;;;;;28.45;25.42;;;17.60;99.90;;;;;;4976988;28;20066;-73
2022/09/08 04:12:15;;;;;;;33.80;30.25;;;17.60;99.90;;;;;;4931475;28;209594;-73
2022/09/08 04:14:42;;;;;;;33.67;30.27;;;17.60;99.90;;;;;;4978560;28;20062;-73
2022/09/08 04:17:09;;;;;;;28.98;26.00;;;17.50;99.90;;;;;;4937729;28;210089;-73
2022/09/08 04:19:35;;;;;;;33.22;29.77;;;17.60;99.90;;;;;;4978870;28;20047;-72
2022/09/08 04:22:02;;;;;;;29.50;26.42;;;17.60;99.90;;;;;;4948827;28;210428;-73
2022/09/08 04:24:28;;;;;;;32.45;29.05;;;17.60;99.90;;;;;;4978201;28;20042;-73
2022/09/08 04:26:54;;;;;;;32.63;29.33;;;17.60;99.90;;;;;;4949912;28;209261;-73
2022/09/08 04:29:22;;;;;;;32.70;29.55;;;17.50;99.90;;;;;;4964840;28;20058;-73
2022/09/08 04:31:49;;;;;;;35.03;31.48;;;17.60;99.90;;;;;;4926028;28;216977;-73
2022/09/08 04:34:16;;;;;;;36.25;32.35;;;17.50;99.90;;;;;;4970713;28;20050;-73
2022/09/08 04:36:43;;;;;;;36.42;32.70;;;17.50;99.90;;;;;;4923752;28;206328;-73
2022/09/08 04:39:09;;;;;;;39.92;35.33;;;17.50;99.90;;;;;;4976742;28;20065;-73
2022/09/08 04:41:37;;;;;;;35.30;31.52;;;17.50;99.90;;;;;;4944974;28;208034;-73
2022/09/08 04:44:04;;;;;;;34.28;30.17;;;17.50;99.90;;;;;;4980451;28;20057;-73
2022/09/08 04:46:32;;;;;;;39.80;35.65;;;17.50;99.90;;;;;;4940494;28;66726;-73
2022/09/08 04:48:59;;;;;;;42.03;37.58;;;17.40;99.90;;;;;;4982192;28;20058;-72
2022/09/08 04:51:27;;;;;;;39.42;35.22;;;17.40;99.90;;;;;;4918112;28;206411;-72
2022/09/08 04:53:55;;;;;;;35.20;31.60;;;17.40;99.90;;;;;;4974254;28;20062;-72
2022/09/08 04:56:23;;;;;;;41.33;37.17;;;17.40;99.90;;;;;;4915182;28;226116;-72
2022/09/08 04:58:49;;;;;;;38.05;34.15;;;17.40;99.90;;;;;;4973698;28;20434;-72
2022/09/08 05:01:19;;;;;;;36.97;33.20;;;17.30;99.90;;;;;;4929319;28;208589;-72
2022/09/08 05:03:47;;;;;;;41.58;37.08;;;17.30;99.90;;;;;;4984099;28;20035;-72
2022/09/08 05:06:15;;;;;;;34.72;31.13;;;17.30;99.90;;;;;;4933582;28;208795;-72
2022/09/08 05:08:48;;;;;;;39.55;35.25;;;17.30;99.90;;;;;;4979093;28;20137;-72
2022/09/08 05:11:15;;;;;;;41.47;36.90;;;17.20;99.90;;;;;;4957120;28;70327;-72
2022/09/08 05:13:46;;;;;;;40.10;35.97;;;17.30;99.90;;;;;;4977010;28;20077;-73
2022/09/08 05:16:14;;;;;;;41.25;35.83;;;17.30;99.90;;;;;;4948792;28;209544;-72
2022/09/08 05:18:42;;;;;;;40.90;36.55;;;17.30;99.90;;;;;;4979452;28;20054;-73
2022/09/08 05:21:09;;;;;;;44.97;39.35;;;17.30;99.90;;;;;;4924330;28;208615;-72
2022/09/08 05:23:35;;;;;;;43.25;38.65;;;17.20;99.90;;;;;;4972386;28;20421;-73
2022/09/08 05:26:07;;;;;;;42.17;37.78;;;17.20;99.90;;;;;;4932326;28;206120;-73
2022/09/08 05:28:37;;;;;;;45.38;40.40;;;17.20;99.90;;;;;;4981041;28;20046;-72
2022/09/08 05:31:05;;;;;;;46.33;38.88;;;17.10;99.90;;;;;;4942953;28;209932;-73
2022/09/08 05:33:32;;;;;;;44.20;38.90;;;17.10;99.90;;;;;;4991429;28;20082;-73
2022/09/08 05:35:59;;;;;;;49.05;41.97;;;17.10;99.90;;;;;;4945648;28;206042;-72
2022/09/08 05:38:26;;;;;;;38.47;34.45;;;17.10;99.90;;;;;;4979693;28;20051;-73
2022/09/08 05:40:52;;;;;;;40.42;36.10;;;17.10;99.90;;;;;;4941471;28;206438;-72
2022/09/08 05:43:19;;;;;;;42.30;37.70;;;17.20;99.90;;;;;;4973418;28;20065;-72
2022/09/08 05:45:46;;;;;;;39.17;34.97;;;17.20;99.90;;;;;;4931209;28;206136;-74
2022/09/08 05:48:13;;;;;;;44.05;38.90;;;17.20;99.90;;;;;;4977720;28;20065;-73
2022/09/08 05:50:44;;;;;;;41.72;37.25;;;17.20;99.90;;;;;;4940490;28;214031;-74
2022/09/08 05:53:12;;;;;;;39.00;34.78;;;17.30;99.90;;;;;;4957917;28;20602;-73
2022/09/08 05:55:40;;;;;;;38.75;33.15;;;17.30;99.90;;;;;;4945654;28;149052;-73
2022/09/08 05:58:07;;;;;;;43.60;36.65;;;17.30;99.90;;;;;;4972073;28;20061;-72
2022/09/08 06:00:34;;;;;;;40.40;36.20;;;17.40;99.90;;;;;;4937889;28;209405;-72
2022/09/08 06:03:00;;;;;;;41.58;37.08;;;17.40;99.90;;;;;;4981646;28;20054;-73
2022/09/08 06:05:26;;;;;;;42.75;38.10;;;17.40;99.90;;;;;;4934095;28;205455;-73
2022/09/08 06:07:52;;;;;;;43.05;38.45;;;17.50;99.90;;;;;;4970213;28;20065;-72
2022/09/08 06:10:18;;;;;;;42.95;38.35;;;17.40;99.90;;;;;;4927058;28;205712;-73
2022/09/08 06:12:44;;;;;;;41.85;36.33;;;17.40;99.90;;;;;;4983351;28;20046;-73
2022/09/08 06:15:11;;;;;;;36.90;33.10;;;17.30;99.90;;;;;;4940249;28;209872;-72
2022/09/08 06:17:38;;;;;;;37.72;33.78;;;17.30;99.90;;;;;;4983168;28;20046;-72
2022/09/08 06:20:05;;;;;;;42.40;37.80;;;17.30;99.90;;;;;;4936105;28;209808;-72
2022/09/08 06:22:33;;;;;;;38.55;34.55;;;17.30;99.90;;;;;;4968479;28;20069;-72
2022/09/08 06:25:00;;;;;;;40.03;35.67;;;17.30;99.90;;;;;;4944040;28;237911;-71
2022/09/08 06:27:26;;;;;;;36.70;32.75;;;17.40;99.90;;;;;;4972474;28;20050;-71
2022/09/08 06:30:01;;;;;;;38.08;33.97;;;17.40;99.90;;;;;;4984629;28;20065;-70
2022/09/08 06:32:40;;;;;;;44.78;36.75;;;17.40;99.90;;;;;;4935620;28;206878;-71
2022/09/08 06:35:21;;;;;;;42.90;35.90;;;17.50;99.90;;;;;;4936533;28;212184;-70
2022/09/08 06:37:54;;;;;;;48.35;41.05;;;17.50;99.90;;;;;;4994172;28;20065;-70
2022/09/08 06:40:25;;;;;;;51.42;43.40;;;17.40;99.90;;;;;;4930706;28;209880;-68
2022/09/08 06:42:58;;;;;;;;;;;17.40;99.90;;;;;;4983849;28;20084;-69
2022/09/08 06:45:29;;;;;;;47.97;39.75;;;17.50;99.90;;;;;;4942778;28;208442;-68
2022/09/08 06:48:10;;;;;;;53.00;43.13;;;17.40;99.90;;;;;;4990948;28;20077;-69
2022/09/08 06:50:40;;;;;;;;;;;17.40;99.90;;;;;;4942490;28;214537;-69
2022/09/08 06:53:13;;;;;;;58.70;44.40;;;17.40;99.90;;;;;;4988259;28;20294;-69
2022/09/08 06:55:46;;;;;;;51.65;44.35;;;17.40;99.90;;;;;;4935799;28;205781;-71
2022/09/08 06:58:26;;;;;;;54.55;45.13;;;17.40;99.90;;;;;;4985082;28;20400;-69
2022/09/08 07:01:09;;;;;;;55.87;44.10;;;17.40;99.90;;;;;;4937753;28;208818;-69
2022/09/08 07:03:47;;;;;;;55.50;43.55;;;17.40;99.90;;;;;;4983635;28;20054;-69
2022/09/08 07:06:17;;;;;;;51.22;41.83;;;17.40;99.90;;;;;;4933020;28;213311;-69
2022/09/08 07:09:28;;;;;;;50.42;41.88;;;17.40;99.90;;;;;;4983108;28;20138;-70
2022/09/08 07:12:11;;;;;;;47.42;37.45;;;17.40;99.90;;;;;;4952361;28;212614;-70
2022/09/08 07:14:47;;;;;;;51.35;38.53;;;17.30;99.90;;;;;;4980530;28;20415;-69
2022/09/08 07:17:34;;;;;;;45.20;37.60;;;17.30;99.90;;;;;;4949817;28;209546;-69
2022/09/08 07:20:03;;;;;;;44.67;37.30;;;17.30;99.90;;;;;;4938524;28;213636;-70
2022/09/08 07:22:49;;;;;;;48.08;37.78;;;17.30;99.90;;;;;;4981634;28;20065;-69
2022/09/08 07:25:32;;;;;;;45.95;35.85;;;17.30;99.90;;;;;;4933269;28;210333;-70
2022/09/08 07:28:12;;;;;;;45.53;36.67;;;17.30;99.90;;;;;;4996212;28;20415;-70
2022/09/08 07:30:39;;;;;;;50.65;38.35;;;17.30;99.90;;;;;;4934454;28;207573;-69
2022/09/08 07:33:34;;;;;;;44.67;37.85;;;17.30;99.90;;;;;;4993313;28;20072;-68
2022/09/08 07:36:34;;;;;;;57.08;40.10;;;17.30;99.90;;;;;;4940668;28;159624;-70
2022/09/08 07:39:10;;;;;;;75.03;41.92;;;17.30;99.90;;;;;;4976940;28;20055;-70
2022/09/08 07:41:44;;;;;;;52.95;38.90;;;17.20;99.90;;;;;;4917598;28;208610;-70
2022/09/08 07:44:16;;;;;;;89.95;43.00;;;17.20;99.90;;;;;;4979125;28;20077;-70
2022/09/08 07:46:52;;;;;;;100.22;43.97;;;17.10;99.90;;;;;;4933533;28;206378;-71
2022/09/08 07:49:28;;;;;;;67.55;37.03;;;17.00;99.90;;;;;;4976772;28;20050;-69
2022/09/08 07:52:06;;;;;;;58.38;35.60;;;17.00;99.90;;;;;;4930700;28;209140;-69
2022/09/08 07:54:41;;;;;;;53.35;36.67;;;16.90;99.90;;;;;;4980627;28;20035;-70
2022/09/08 07:57:21;;;;;;;49.78;36.33;;;16.90;99.90;;;;;;4951274;28;209404;-70
2022/09/08 08:00:19;;;;;;;49.50;38.53;;;16.90;99.90;;;;;;4980541;28;20424;-70
2022/09/08 08:03:10;;;;;;;55.38;41.25;;;16.80;99.90;;;;;;4903950;28;206540;-68
2022/09/08 08:05:55;;;;;;;56.13;42.47;;;16.70;99.90;;;;;;4934864;28;209563;-68
2022/09/08 08:08:33;;;;;;;59.88;44.20;;;16.70;99.90;;;;;;4990437;28;20042;-69
2022/09/08 08:11:21;;;;;;;64.63;46.97;;;16.70;99.90;;;;;;4929269;28;205500;-68
2022/09/08 08:13:56;;;;;;;72.57;51.05;;;16.70;99.90;;;;;;4978924;28;20050;-68
2022/09/08 08:16:47;;;;;;;70.82;51.60;;;16.70;99.90;;;;;;4935616;28;213882;-68
2022/09/08 08:19:47;;;;;;;75.22;52.20;;;16.70;99.90;;;;;;4975692;28;20077;-68
2022/09/08 08:22:33;;;;;;;68.27;50.83;;;16.70;99.90;;;;;;4934259;28;209552;-68
2022/09/08 08:25:29;;;;;;;76.07;52.72;;;16.70;99.90;;;;;;4945920;28;210899;-68
2022/09/08 08:28:18;;;;;;;74.70;52.50;;;16.70;99.90;;;;;;4991850;28;20042;-69
2022/09/08 08:30:50;;;;;;;70.07;50.53;;;16.70;99.90;;;;;;4945987;28;207193;-68
2022/09/08 08:33:20;;;;;;;76.32;51.78;;;16.70;99.90;;;;;;4993890;28;20055;-69
2022/09/08 08:36:03;;;;;;;64.60;44.17;;;16.70;99.90;;;;;;4943290;28;209197;-69
2022/09/08 08:38:55;;;;;;;63.50;47.65;;;16.70;99.90;;;;;;4986239;28;20047;-68
2022/09/08 08:42:18;;;;;;;71.82;47.80;;;16.70;99.90;;;;;;4931623;28;213578;-68
2022/09/08 08:45:04;;;;;;;66.60;45.45;;;16.70;99.90;;;;;;4931218;29;20112;-69
2022/09/08 08:47:57;;;;;;;59.45;40.88;;;16.70;99.90;;;;;;4867129;29;206457;-68
2022/09/08 08:50:59;;;;;;;56.38;39.55;;;16.70;99.90;;;;;;4888894;28;140045;-68
2022/09/08 08:53:49;;;;;;;55.88;37.45;;;16.70;99.90;;;;;;4915426;29;20056;-68
2022/09/08 08:56:34;;;;;;;46.55;30.17;;;16.70;99.90;;;;;;4887144;28;208443;-68
2022/09/08 08:59:00;;;;;;;39.40;28.10;;;16.60;99.90;;;;;;4907883;29;20052;-68
2022/09/08 09:01:26;;;;;;;38.65;25.90;;;16.60;99.90;;;;;;4885658;29;213679;-67
2022/09/08 09:03:58;;;;;;;39.70;25.80;;;16.50;99.90;;;;;;4923383;29;20058;-67
2022/09/08 09:06:28;;;;;;;38.40;25.10;;;16.50;99.90;;;;;;4866304;29;209735;-68
2022/09/08 09:09:00;;;;;;;34.92;25.00;;;16.60;99.90;;;;;;4902338;29;20129;-69
2022/09/08 09:11:47;;;;;;;31.30;21.13;;;16.60;99.90;;;;;;4872217;29;206549;-69
2022/09/08 09:14:34;;;;;;;35.25;23.23;;;16.60;99.90;;;;;;4928247;28;20056;-70
2022/09/08 09:17:38;;;;;;;30.02;21.50;;;16.60;99.90;;;;;;4927614;28;182977;-69
2022/09/08 09:20:25;;;;;;;34.07;23.23;;;16.60;99.90;;;;;;4903357;28;207848;-69
2022/09/08 09:23:07;;;;;;;33.40;21.88;;;16.60;99.90;;;;;;4929263;28;20038;-70
2022/09/08 09:25:40;;;;;;;30.25;21.23;;;16.70;99.90;;;;;;4892351;28;206665;-70
2022/09/08 09:28:32;;;;;;;29.38;19.23;;;16.70;99.90;;;;;;4935727;28;20055;-69
2022/09/08 09:31:20;;;;;;;29.00;18.27;;;16.70;99.90;;;;;;4902501;28;206711;-70
2022/09/08 09:34:07;;;;;;;22.75;15.23;;;16.70;99.90;;;;;;4946739;28;20513;-70
2022/09/08 09:37:19;;;;;;;21.95;15.35;;;16.70;99.90;;;;;;4906938;28;206951;-70
2022/09/08 09:40:06;;;;;;;20.83;13.85;;;16.70;99.90;;;;;;4889028;29;20222;-70
2022/09/08 09:42:42;;;;;;;25.02;16.05;;;16.70;99.90;;;;;;4844757;29;207024;-70
2022/09/08 09:45:29;;;;;;;23.52;16.20;;;16.70;99.90;;;;;;4847809;29;208912;-71
2022/09/08 09:48:04;;;;;;;28.30;17.05;;;16.70;99.90;;;;;;4870953;29;20048;-70
2022/09/08 09:51:03;;;;;;;22.00;14.95;;;16.80;99.90;;;;;;4846303;29;212759;-70
2022/09/08 09:53:50;;;;;;;20.10;11.52;;;16.80;99.90;;;;;;4825820;29;20057;-70
2022/09/08 09:56:53;;;;;;;18.75;10.93;;;16.70;99.90;;;;;;4793343;29;204929;-70
2022/09/08 09:59:35;;;;;;;15.02;9.05;;;16.70;99.90;;;;;;4817784;29;20058;-70
2022/09/08 10:02:38;;;;;;;14.75;8.98;;;16.70;99.90;;;;;;4788878;29;206550;-70
2022/09/08 10:05:42;;;;;;;15.65;8.32;;;16.80;99.90;;;;;;4815681;29;118520;-70
2022/09/08 10:08:29;;;;;;;16.73;8.70;;;16.90;99.90;;;;;;4846086;29;20069;-70
2022/09/08 10:11:14;;;;;;;16.13;7.93;;;16.90;99.90;;;;;;4807540;29;209668;-70
2022/09/08 10:14:07;;;;;;;13.20;8.30;;;16.90;99.90;;;;;;4845441;29;20061;-70
2022/09/08 10:16:59;;;;;;;14.20;8.07;;;16.90;99.90;;;;;;4826140;29;206110;-70
2022/09/08 10:20:06;;;;;;;15.10;7.97;;;16.90;99.90;;;;;;4918833;29;20044;-71
2022/09/08 10:22:44;;;;;;;12.85;6.93;;;16.80;99.90;;;;;;4810372;29;206001;-70
2022/09/08 10:25:41;;;;;;;10.27;5.38;;;16.80;99.90;;;;;;4805256;29;206425;-69
2022/09/08 10:28:27;;;;;;;9.60;3.03;;;16.80;99.90;;;;;;4853186;29;20128;-71
2022/09/08 10:31:07;;;;;;;8.88;2.90;;;16.70;99.90;;;;;;4831433;29;201330;-70
2022/09/08 10:33:36;;;;;;;8.75;2.70;;;16.60;99.90;;;;;;4911049;29;20407;-70
2022/09/08 10:36:10;;;;;;;8.68;2.85;;;16.60;99.90;;;;;;4855400;29;210043;-70
2022/09/08 10:38:55;;;;;;;10.13;2.67;;;16.60;99.90;;;;;;4894257;29;20075;-71
2022/09/08 10:41:42;;;;;;;9.23;2.47;;;16.60;99.90;;;;;;4835671;29;211781;-71
2022/09/08 10:44:39;;;;;;;7.93;2.33;;;16.60;99.90;;;;;;4903874;29;20066;-71
2022/09/08 10:47:48;;;;;;;9.13;2.80;;;16.60;99.90;;;;;;4855543;29;205426;-71
2022/09/08 10:50:18;;;;;;;9.50;3.35;;;16.60;99.90;;;;;;4861380;29;206565;-70
2022/09/08 10:53:14;;;;;;;10.07;3.03;;;16.60;99.90;;;;;;4890271;29;20477;-71
2022/09/08 10:55:58;;;;;;;9.15;3.20;;;16.70;99.90;;;;;;4866885;29;147583;-71
2022/09/08 10:58:30;;;;;;;9.43;3.30;;;16.70;99.90;;;;;;4904640;29;20071;-71
2022/09/08 11:01:33;;;;;;;8.00;2.75;;;16.70;99.90;;;;;;4934214;28;209444;-71
2022/09/08 11:04:24;;;;;;;10.43;2.83;;;16.70;99.90;;;;;;4957484;28;20055;-71
2022/09/08 11:07:26;;;;;;;9.05;3.17;;;16.70;99.90;;;;;;4923753;28;218779;-72
2022/09/08 11:10:01;;;;;;;9.07;2.88;;;16.80;99.90;;;;;;4964940;28;20062;-71
2022/09/08 11:12:43;;;;;;;9.25;3.05;;;16.80;99.90;;;;;;4930732;28;206617;-71
2022/09/08 11:15:30;;;;;;;9.90;3.47;;;16.80;99.90;;;;;;4934475;28;210053;-71
2022/09/08 11:18:24;;;;;;;10.27;3.33;;;16.80;99.90;;;;;;4984402;28;20307;-71
2022/09/08 11:20:59;;;;;;;10.15;3.60;;;16.80;99.90;;;;;;4941695;28;212993;-71
2022/09/08 11:24:27;;;;;;;7.57;3.13;;;16.80;99.90;;;;;;4983064;28;20065;-71
2022/09/08 11:27:16;;;;;;;9.25;3.42;;;16.90;99.90;;;;;;4823519;29;209776;-71
2022/09/08 11:29:42;;;;;;;10.05;3.92;;;16.80;99.90;;;;;;4912770;29;20052;-71
2022/09/08 11:32:34;;;;;;;9.57;3.88;;;16.80;99.90;;;;;;4866953;29;208678;-71
2022/09/08 11:35:21;;;;;;;11.52;4.07;;;16.80;99.90;;;;;;4861262;29;205788;-71
2022/09/08 11:38:08;;;;;;;9.68;3.83;;;16.80;99.90;;;;;;4892345;29;20052;-71
2022/09/08 11:41:11;;;;;;;8.70;3.75;;;16.80;99.90;;;;;;4860946;29;213836;-71
2022/09/08 11:43:52;;;;;;;9.80;3.85;;;16.80;99.90;;;;;;4902420;29;20060;-71
2022/09/08 11:46:21;;;;;;;;;;;16.80;99.90;;;;;;4847906;29;190556;-70
2022/09/08 11:49:09;;;;;;;12.77;4.43;;;16.70;99.90;;;;;;4901064;29;20511;-70
2022/09/08 11:52:12;;;;;;;13.00;4.03;;;16.80;99.90;;;;;;4859518;29;210929;-71
2022/09/08 11:55:10;;;;;;;9.65;3.50;;;16.90;99.90;;;;;;4903310;29;20055;-71
2022/09/08 11:57:59;;;;;;;10.80;4.05;;;16.90;99.90;;;;;;4857175;29;161970;-71
2022/09/08 12:00:51;;;;;;;11.73;3.00;;;16.90;99.90;;;;;;4855446;28;205470;-71
2022/09/08 12:03:46;;;;;;;7.97;2.83;;;16.90;99.90;;;;;;4934914;28;20050;-71
2022/09/08 12:06:37;;;;;;;9.10;2.70;;;17.00;99.90;;;;;;4923639;28;211177;-71
2022/09/08 12:09:26;;;;;;;8.43;2.50;;;16.90;99.90;;;;;;4959577;28;20073;-71
2022/09/08 12:12:21;;;;;;;8.73;2.78;;;16.90;99.90;;;;;;4938376;28;215654;-71
2022/09/08 12:15:19;;;;;;;7.65;2.53;;;17.00;99.90;;;;;;4979721;28;20073;-72
2022/09/08 12:18:07;;;;;;;8.73;2.83;;;17.00;99.90;;;;;;4920980;28;206456;-73
2022/09/08 12:20:46;;;;;;;7.43;2.47;;;17.10;99.90;;;;;;4918963;28;212516;-72
2022/09/08 12:23:12;;;;;;;10.35;3.13;;;17.10;99.90;;;;;;4972879;28;20061;-71
2022/09/08 12:26:16;;;;;;;8.68;3.20;;;17.10;99.90;;;;;;4936626;28;206222;-71
2022/09/08 12:29:08;;;;;;;10.23;3.20;;;17.10;99.90;;;;;;4982422;28;20061;-71
2022/09/08 12:31:52;;;;;;;10.70;3.40;;;17.00;99.90;;;;;;4920579;28;205806;-71
2022/09/08 12:34:46;;;;;;;10.32;4.10;;;17.10;99.90;;;;;;4983487;28;20069;-70
2022/09/08 12:37:34;;;;;;;12.65;5.00;;;17.30;99.90;;;;;;4963222;28;212518;-71
2022/09/08 12:40:34;;;;;;;10.80;5.65;;;17.40;99.90;;;;;;4948326;28;209847;-71
2022/09/08 12:43:06;;;;;;;12.50;6.28;;;17.40;99.90;;;;;;4991308;28;20843;-70
2022/09/08 12:45:51;;;;;;;12.43;6.05;;;17.40;99.90;;;;;;4946122;28;208260;-71
2022/09/08 12:48:43;;;;;;;12.00;6.15;;;17.40;99.90;;;;;;4978898;28;20058;-71
2022/09/08 12:51:29;;;;;;;12.45;6.95;;;17.40;99.90;;;;;;4932255;28;208753;-71
2022/09/08 12:54:14;;;;;;;13.20;6.82;;;17.40;99.90;;;;;;4969166;28;20047;-71
2022/09/08 12:57:13;;;;;;;12.52;7.00;;;17.60;99.90;;;;;;4930282;28;206149;-69
2022/09/08 13:00:13;;;;;;;12.15;7.22;;;17.70;99.90;;;;;;4988276;28;20042;-71
2022/09/08 13:03:03;;;;;;;13.65;7.38;;;17.60;99.90;;;;;;4958042;28;206522;-71
2022/09/08 13:05:37;;;;;;;15.75;7.93;;;17.70;99.90;;;;;;4934381;28;216154;-70
2022/09/08 13:08:12;;;;;;;14.10;8.02;;;17.70;99.90;;;;;;4987141;28;20050;-71
2022/09/08 13:10:41;;;;;;;13.48;8.07;;;17.80;99.90;;;;;;4930514;28;205789;-72
2022/09/08 13:13:16;;;;;;;16.33;9.00;;;17.90;99.90;;;;;;4984960;28;20058;-70
2022/09/08 13:15:50;;;;;;;15.70;8.50;;;18.00;99.90;;;;;;4954722;28;207022;-71
2022/09/08 13:18:30;;;;;;;16.20;9.50;;;18.10;99.90;;;;;;4981106;28;20620;-71